sensor_id;sensor_type;location;lat;lon;timestamp;P1;durP1;ratioP1;P2;durP2;ratioP2
7737;SDS011;29398;45.328;5.558;2024-01-15T00:00:01;36.85;;;25.73;;
7737;SDS011;29398;45.328;5.558;2024-01-15T00:01:11;37.47;;;25.20;;
7737;SDS011;29398;45.328;5.558;2024-01-15T00:02:13;38.72;;;25.83;;
7737;SDS011;29398;45.328;5.558;2024-01-15T00:03:14;38.85;;;26.33;;
7737;SDS011;29398;45.328;5.558;2024-01-15T00:04:16;40.35;;;25.63;;
7737;SDS011;29398;45.328;5.558;2024-01-15T00:05:17;38.97;;;26.35;;
7737;SDS011;29398;45.328;5.558;2024-01-15T00:06:20;37.60;;;25.95;;
7737;SDS011;29398;45.328;5.558;2024-01-15T00:07:22;36.13;;;25.20;;
7737;SDS011;29398;45.328;5.558;2024-01-15T00:08:24;37.50;;;25.52;;
7737;SDS011;29398;45.328;5.558;2024-01-15T00:09:25;36.38;;;25.08;;
7737;SDS011;29398;45.328;5.558;2024-01-15T00:10:27;37.05;;;24.85;;
7737;SDS011;29398;45.328;5.558;2024-01-15T00:11:29;37.75;;;25.05;;
7737;SDS011;29398;45.328;5.558;2024-01-15T00:12:31;38.30;;;26.80;;
7737;SDS011;29398;45.328;5.558;2024-01-15T00:13:32;38.60;;;27.15;;
7737;SDS011;29398;45.328;5.558;2024-01-15T00:14:34;44.40;;;26.95;;
7737;SDS011;29398;45.328;5.558;2024-01-15T00:15:35;43.75;;;28.48;;
7737;SDS011;29398;45.328;5.558;2024-01-15T00:16:37;43.70;;;28.88;;
7737;SDS011;29398;45.328;5.558;2024-01-15T00:17:40;39.80;;;25.75;;
7737;SDS011;29398;45.328;5.558;2024-01-15T00:18:42;40.75;;;27.77;;
7737;SDS011;29398;45.328;5.558;2024-01-15T00:19:43;44.33;;;29.67;;
7737;SDS011;29398;45.328;5.558;2024-01-15T00:20:44;41.60;;;28.80;;
7737;SDS011;29398;45.328;5.558;2024-01-15T00:21:48;41.72;;;28.15;;
7737;SDS011;29398;45.328;5.558;2024-01-15T00:22:49;39.20;;;26.73;;
7737;SDS011;29398;45.328;5.558;2024-01-15T00:23:51;40.83;;;28.25;;
7737;SDS011;29398;45.328;5.558;2024-01-15T00:24:52;36.22;;;25.95;;
7737;SDS011;29398;45.328;5.558;2024-01-15T00:25:54;41.75;;;29.20;;
7737;SDS011;29398;45.328;5.558;2024-01-15T00:26:55;39.88;;;27.95;;
7737;SDS011;29398;45.328;5.558;2024-01-15T00:27:57;40.47;;;28.35;;
7737;SDS011;29398;45.328;5.558;2024-01-15T00:28:58;41.13;;;27.73;;
7737;SDS011;29398;45.328;5.558;2024-01-15T00:30:00;40.60;;;27.90;;
7737;SDS011;29398;45.328;5.558;2024-01-15T00:31:02;47.60;;;29.80;;
7737;SDS011;29398;45.328;5.558;2024-01-15T00:32:04;44.05;;;29.27;;
7737;SDS011;29398;45.328;5.558;2024-01-15T00:33:06;41.90;;;28.05;;
7737;SDS011;29398;45.328;5.558;2024-01-15T00:34:08;41.25;;;28.75;;
7737;SDS011;29398;45.328;5.558;2024-01-15T00:35:09;43.97;;;29.38;;
7737;SDS011;29398;45.328;5.558;2024-01-15T00:36:11;41.95;;;28.23;;
7737;SDS011;29398;45.328;5.558;2024-01-15T00:37:13;41.80;;;28.67;;
7737;SDS011;29398;45.328;5.558;2024-01-15T00:38:16;40.45;;;27.55;;
7737;SDS011;29398;45.328;5.558;2024-01-15T00:39:17;45.38;;;30.55;;
7737;SDS011;29398;45.328;5.558;2024-01-15T00:40:19;44.00;;;29.33;;
7737;SDS011;29398;45.328;5.558;2024-01-15T00:41:20;45.13;;;30.13;;
7737;SDS011;29398;45.328;5.558;2024-01-15T00:42:21;42.20;;;28.92;;
7737;SDS011;29398;45.328;5.558;2024-01-15T00:43:23;43.40;;;28.58;;
7737;SDS011;29398;45.328;5.558;2024-01-15T00:44:24;40.83;;;27.25;;
7737;SDS011;29398;45.328;5.558;2024-01-15T00:45:26;45.90;;;28.20;;
7737;SDS011;29398;45.328;5.558;2024-01-15T00:46:28;40.20;;;27.38;;
7737;SDS011;29398;45.328;5.558;2024-01-15T00:47:29;41.22;;;27.90;;
7737;SDS011;29398;45.328;5.558;2024-01-15T00:48:32;40.13;;;27.08;;
7737;SDS011;29398;45.328;5.558;2024-01-15T00:49:33;37.90;;;26.67;;
7737;SDS011;29398;45.328;5.558;2024-01-15T00:50:35;37.17;;;25.55;;
7737;SDS011;29398;45.328;5.558;2024-01-15T00:51:36;42.60;;;27.55;;
7737;SDS011;29398;45.328;5.558;2024-01-15T00:52:39;38.13;;;27.60;;
7737;SDS011;29398;45.328;5.558;2024-01-15T00:53:41;38.00;;;26.92;;
7737;SDS011;29398;45.328;5.558;2024-01-15T00:54:42;37.78;;;27.05;;
7737;SDS011;29398;45.328;5.558;2024-01-15T00:55:44;41.40;;;28.10;;
7737;SDS011;29398;45.328;5.558;2024-01-15T00:56:46;40.17;;;27.67;;
7737;SDS011;29398;45.328;5.558;2024-01-15T00:57:48;41.05;;;27.42;;
7737;SDS011;29398;45.328;5.558;2024-01-15T00:58:49;40.13;;;27.67;;
7737;SDS011;29398;45.328;5.558;2024-01-15T00:59:51;39.92;;;27.95;;
7737;SDS011;29398;45.328;5.558;2024-01-15T01:00:52;38.05;;;25.77;;
7737;SDS011;29398;45.328;5.558;2024-01-15T01:01:54;39.45;;;25.83;;
7737;SDS011;29398;45.328;5.558;2024-01-15T01:02:55;38.80;;;26.30;;
7737;SDS011;29398;45.328;5.558;2024-01-15T01:03:57;39.03;;;26.77;;
7737;SDS011;29398;45.328;5.558;2024-01-15T01:04:58;41.35;;;26.40;;
7737;SDS011;29398;45.328;5.558;2024-01-15T01:05:59;41.08;;;27.55;;
7737;SDS011;29398;45.328;5.558;2024-01-15T01:07:01;38.67;;;26.77;;
7737;SDS011;29398;45.328;5.558;2024-01-15T01:08:04;41.20;;;28.40;;
7737;SDS011;29398;45.328;5.558;2024-01-15T01:09:06;38.00;;;26.40;;
7737;SDS011;29398;45.328;5.558;2024-01-15T01:10:08;38.70;;;26.27;;
7737;SDS011;29398;45.328;5.558;2024-01-15T01:11:12;38.83;;;26.30;;
7737;SDS011;29398;45.328;5.558;2024-01-15T01:12:13;40.88;;;27.30;;
7737;SDS011;29398;45.328;5.558;2024-01-15T01:13:14;39.08;;;26.15;;
7737;SDS011;29398;45.328;5.558;2024-01-15T01:14:16;40.20;;;27.73;;
7737;SDS011;29398;45.328;5.558;2024-01-15T01:15:18;39.08;;;26.55;;
7737;SDS011;29398;45.328;5.558;2024-01-15T01:16:20;40.42;;;27.67;;
7737;SDS011;29398;45.328;5.558;2024-01-15T01:17:21;40.63;;;25.83;;
7737;SDS011;29398;45.328;5.558;2024-01-15T01:18:23;39.45;;;27.27;;
7737;SDS011;29398;45.328;5.558;2024-01-15T01:19:24;38.08;;;26.45;;
7737;SDS011;29398;45.328;5.558;2024-01-15T01:20:27;37.97;;;25.88;;
7737;SDS011;29398;45.328;5.558;2024-01-15T01:21:28;36.67;;;25.83;;
7737;SDS011;29398;45.328;5.558;2024-01-15T01:22:30;45.47;;;28.65;;
7737;SDS011;29398;45.328;5.558;2024-01-15T01:23:32;39.70;;;26.80;;
7737;SDS011;29398;45.328;5.558;2024-01-15T01:24:34;38.05;;;26.25;;
7737;SDS011;29398;45.328;5.558;2024-01-15T01:25:35;36.33;;;24.67;;
7737;SDS011;29398;45.328;5.558;2024-01-15T01:26:37;37.78;;;25.92;;
7737;SDS011;29398;45.328;5.558;2024-01-15T01:27:39;39.47;;;27.27;;
7737;SDS011;29398;45.328;5.558;2024-01-15T01:28:41;38.33;;;26.25;;
7737;SDS011;29398;45.328;5.558;2024-01-15T01:29:42;39.83;;;26.80;;
7737;SDS011;29398;45.328;5.558;2024-01-15T01:30:44;38.20;;;26.90;;
7737;SDS011;29398;45.328;5.558;2024-01-15T01:31:45;40.65;;;26.55;;
7737;SDS011;29398;45.328;5.558;2024-01-15T01:32:47;34.92;;;24.90;;
7737;SDS011;29398;45.328;5.558;2024-01-15T01:33:48;37.05;;;26.25;;
7737;SDS011;29398;45.328;5.558;2024-01-15T01:34:50;39.45;;;24.85;;
7737;SDS011;29398;45.328;5.558;2024-01-15T01:35:52;37.58;;;24.95;;
7737;SDS011;29398;45.328;5.558;2024-01-15T01:36:53;38.88;;;26.50;;
7737;SDS011;29398;45.328;5.558;2024-01-15T01:37:55;39.78;;;26.92;;
7737;SDS011;29398;45.328;5.558;2024-01-15T01:38:58;40.03;;;27.02;;
7737;SDS011;29398;45.328;5.558;2024-01-15T01:40:00;41.13;;;27.35;;
7737;SDS011;29398;45.328;5.558;2024-01-15T01:41:01;43.47;;;28.38;;
7737;SDS011;29398;45.328;5.558;2024-01-15T01:42:03;42.05;;;27.42;;
7737;SDS011;29398;45.328;5.558;2024-01-15T01:43:05;43.20;;;27.63;;
7737;SDS011;29398;45.328;5.558;2024-01-15T01:44:07;40.15;;;27.13;;
7737;SDS011;29398;45.328;5.558;2024-01-15T01:45:08;41.13;;;27.02;;
7737;SDS011;29398;45.328;5.558;2024-01-15T01:46:11;45.30;;;29.10;;
7737;SDS011;29398;45.328;5.558;2024-01-15T01:47:12;46.50;;;29.00;;
7737;SDS011;29398;45.328;5.558;2024-01-15T01:48:14;44.22;;;28.83;;
7737;SDS011;29398;45.328;5.558;2024-01-15T01:49:17;43.05;;;29.95;;
7737;SDS011;29398;45.328;5.558;2024-01-15T01:50:18;43.88;;;29.17;;
7737;SDS011;29398;45.328;5.558;2024-01-15T01:51:20;42.90;;;28.23;;
7737;SDS011;29398;45.328;5.558;2024-01-15T01:52:23;44.10;;;28.70;;
7737;SDS011;29398;45.328;5.558;2024-01-15T01:53:26;39.20;;;27.30;;
7737;SDS011;29398;45.328;5.558;2024-01-15T01:54:30;40.50;;;26.75;;
7737;SDS011;29398;45.328;5.558;2024-01-15T01:55:33;41.92;;;27.70;;
7737;SDS011;29398;45.328;5.558;2024-01-15T01:56:36;39.03;;;26.77;;
7737;SDS011;29398;45.328;5.558;2024-01-15T01:57:38;37.25;;;25.10;;
7737;SDS011;29398;45.328;5.558;2024-01-15T01:58:40;36.42;;;25.83;;
7737;SDS011;29398;45.328;5.558;2024-01-15T01:59:43;40.65;;;27.17;;
7737;SDS011;29398;45.328;5.558;2024-01-15T02:00:46;41.10;;;27.15;;
7737;SDS011;29398;45.328;5.558;2024-01-15T02:01:49;35.63;;;25.88;;
7737;SDS011;29398;45.328;5.558;2024-01-15T02:02:51;38.70;;;26.52;;
7737;SDS011;29398;45.328;5.558;2024-01-15T02:03:53;36.25;;;26.20;;
7737;SDS011;29398;45.328;5.558;2024-01-15T02:04:56;37.65;;;25.85;;
7737;SDS011;29398;45.328;5.558;2024-01-15T02:05:59;36.40;;;25.92;;
7737;SDS011;29398;45.328;5.558;2024-01-15T02:07:00;37.95;;;26.90;;
7737;SDS011;29398;45.328;5.558;2024-01-15T02:08:03;40.13;;;26.27;;
7737;SDS011;29398;45.328;5.558;2024-01-15T02:09:04;37.90;;;26.38;;
7737;SDS011;29398;45.328;5.558;2024-01-15T02:10:07;38.00;;;26.67;;
7737;SDS011;29398;45.328;5.558;2024-01-15T02:11:10;39.47;;;27.20;;
7737;SDS011;29398;45.328;5.558;2024-01-15T02:12:11;38.38;;;26.60;;
7737;SDS011;29398;45.328;5.558;2024-01-15T02:13:13;39.92;;;27.80;;
7737;SDS011;29398;45.328;5.558;2024-01-15T02:14:14;42.70;;;28.58;;
7737;SDS011;29398;45.328;5.558;2024-01-15T02:15:16;40.03;;;27.38;;
7737;SDS011;29398;45.328;5.558;2024-01-15T02:16:18;39.75;;;27.65;;
7737;SDS011;29398;45.328;5.558;2024-01-15T02:17:19;37.20;;;27.70;;
7737;SDS011;29398;45.328;5.558;2024-01-15T02:18:21;41.95;;;28.38;;
7737;SDS011;29398;45.328;5.558;2024-01-15T02:19:22;37.28;;;26.42;;
7737;SDS011;29398;45.328;5.558;2024-01-15T02:20:24;39.10;;;26.60;;
7737;SDS011;29398;45.328;5.558;2024-01-15T02:21:25;43.88;;;28.02;;
7737;SDS011;29398;45.328;5.558;2024-01-15T02:22:29;39.17;;;27.80;;
7737;SDS011;29398;45.328;5.558;2024-01-15T02:23:31;41.33;;;28.60;;
7737;SDS011;29398;45.328;5.558;2024-01-15T02:24:33;39.65;;;26.35;;
7737;SDS011;29398;45.328;5.558;2024-01-15T02:25:35;40.25;;;28.38;;
7737;SDS011;29398;45.328;5.558;2024-01-15T02:26:37;40.00;;;28.42;;
7737;SDS011;29398;45.328;5.558;2024-01-15T02:27:38;37.53;;;25.58;;
7737;SDS011;29398;45.328;5.558;2024-01-15T02:28:41;39.15;;;28.30;;
7737;SDS011;29398;45.328;5.558;2024-01-15T02:29:44;41.35;;;28.77;;
7737;SDS011;29398;45.328;5.558;2024-01-15T02:30:47;38.53;;;26.85;;
7737;SDS011;29398;45.328;5.558;2024-01-15T02:31:48;38.50;;;27.33;;
7737;SDS011;29398;45.328;5.558;2024-01-15T02:32:50;40.33;;;27.73;;
7737;SDS011;29398;45.328;5.558;2024-01-15T02:33:51;40.65;;;27.83;;
7737;SDS011;29398;45.328;5.558;2024-01-15T02:34:53;41.03;;;27.10;;
7737;SDS011;29398;45.328;5.558;2024-01-15T02:35:56;36.90;;;26.10;;
7737;SDS011;29398;45.328;5.558;2024-01-15T02:36:58;37.70;;;26.50;;
7737;SDS011;29398;45.328;5.558;2024-01-15T02:37:59;40.20;;;27.25;;
7737;SDS011;29398;45.328;5.558;2024-01-15T02:39:02;38.85;;;27.65;;
7737;SDS011;29398;45.328;5.558;2024-01-15T02:40:04;40.13;;;26.77;;
7737;SDS011;29398;45.328;5.558;2024-01-15T02:41:06;35.47;;;25.63;;
7737;SDS011;29398;45.328;5.558;2024-01-15T02:42:08;40.28;;;28.00;;
7737;SDS011;29398;45.328;5.558;2024-01-15T02:43:09;37.47;;;26.55;;
7737;SDS011;29398;45.328;5.558;2024-01-15T02:44:11;40.20;;;28.23;;
7737;SDS011;29398;45.328;5.558;2024-01-15T02:45:12;38.67;;;27.20;;
7737;SDS011;29398;45.328;5.558;2024-01-15T02:46:14;40.63;;;29.05;;
7737;SDS011;29398;45.328;5.558;2024-01-15T02:47:16;35.38;;;25.38;;
7737;SDS011;29398;45.328;5.558;2024-01-15T02:48:18;43.30;;;26.23;;
7737;SDS011;29398;45.328;5.558;2024-01-15T02:49:19;39.28;;;27.42;;
7737;SDS011;29398;45.328;5.558;2024-01-15T02:50:20;39.25;;;26.40;;
7737;SDS011;29398;45.328;5.558;2024-01-15T02:51:22;40.67;;;27.60;;
7737;SDS011;29398;45.328;5.558;2024-01-15T02:52:24;41.70;;;28.73;;
7737;SDS011;29398;45.328;5.558;2024-01-15T02:53:26;40.53;;;28.63;;
7737;SDS011;29398;45.328;5.558;2024-01-15T02:54:28;39.10;;;27.40;;
7737;SDS011;29398;45.328;5.558;2024-01-15T02:55:29;44.78;;;28.85;;
7737;SDS011;29398;45.328;5.558;2024-01-15T02:56:31;40.88;;;28.05;;
7737;SDS011;29398;45.328;5.558;2024-01-15T02:57:32;39.15;;;27.00;;
7737;SDS011;29398;45.328;5.558;2024-01-15T02:58:34;39.00;;;27.35;;
7737;SDS011;29398;45.328;5.558;2024-01-15T02:59:36;40.45;;;27.35;;
7737;SDS011;29398;45.328;5.558;2024-01-15T03:00:37;38.40;;;27.63;;
7737;SDS011;29398;45.328;5.558;2024-01-15T03:01:39;43.05;;;28.30;;
7737;SDS011;29398;45.328;5.558;2024-01-15T03:02:40;38.15;;;27.42;;
7737;SDS011;29398;45.328;5.558;2024-01-15T03:03:43;39.58;;;27.58;;
7737;SDS011;29398;45.328;5.558;2024-01-15T03:04:45;40.60;;;27.30;;
7737;SDS011;29398;45.328;5.558;2024-01-15T03:05:46;41.72;;;28.55;;
7737;SDS011;29398;45.328;5.558;2024-01-15T03:06:49;43.83;;;30.42;;
7737;SDS011;29398;45.328;5.558;2024-01-15T03:07:50;41.75;;;27.90;;
7737;SDS011;29398;45.328;5.558;2024-01-15T03:08:51;40.55;;;28.92;;
7737;SDS011;29398;45.328;5.558;2024-01-15T03:09:54;42.05;;;28.13;;
7737;SDS011;29398;45.328;5.558;2024-01-15T03:10:55;40.05;;;27.77;;
7737;SDS011;29398;45.328;5.558;2024-01-15T03:11:57;39.78;;;26.88;;
7737;SDS011;29398;45.328;5.558;2024-01-15T03:12:58;37.65;;;26.67;;
7737;SDS011;29398;45.328;5.558;2024-01-15T03:14:00;40.25;;;28.08;;
7737;SDS011;29398;45.328;5.558;2024-01-15T03:15:02;41.38;;;28.40;;
7737;SDS011;29398;45.328;5.558;2024-01-15T03:16:04;40.25;;;27.67;;
7737;SDS011;29398;45.328;5.558;2024-01-15T03:17:05;38.72;;;27.52;;
7737;SDS011;29398;45.328;5.558;2024-01-15T03:18:09;39.00;;;27.40;;
7737;SDS011;29398;45.328;5.558;2024-01-15T03:19:11;38.13;;;27.02;;
7737;SDS011;29398;45.328;5.558;2024-01-15T03:20:12;43.60;;;29.25;;
7737;SDS011;29398;45.328;5.558;2024-01-15T03:21:13;38.90;;;28.13;;
7737;SDS011;29398;45.328;5.558;2024-01-15T03:22:15;43.33;;;28.80;;
7737;SDS011;29398;45.328;5.558;2024-01-15T03:23:16;38.97;;;26.38;;
7737;SDS011;29398;45.328;5.558;2024-01-15T03:24:18;38.60;;;26.85;;
7737;SDS011;29398;45.328;5.558;2024-01-15T03:25:21;41.10;;;27.92;;
7737;SDS011;29398;45.328;5.558;2024-01-15T03:26:22;30.20;;;20.67;;
7737;SDS011;29398;45.328;5.558;2024-01-15T03:27:24;38.03;;;26.90;;
7737;SDS011;29398;45.328;5.558;2024-01-15T03:28:26;37.13;;;26.13;;
7737;SDS011;29398;45.328;5.558;2024-01-15T03:29:30;38.67;;;26.80;;
7737;SDS011;29398;45.328;5.558;2024-01-15T03:30:31;37.15;;;25.95;;
7737;SDS011;29398;45.328;5.558;2024-01-15T03:31:33;35.72;;;26.25;;
7737;SDS011;29398;45.328;5.558;2024-01-15T03:32:34;39.08;;;26.75;;
7737;SDS011;29398;45.328;5.558;2024-01-15T03:33:36;38.80;;;27.08;;
7737;SDS011;29398;45.328;5.558;2024-01-15T03:34:38;39.95;;;27.80;;
7737;SDS011;29398;45.328;5.558;2024-01-15T03:35:40;39.08;;;26.85;;
7737;SDS011;29398;45.328;5.558;2024-01-15T03:36:41;37.60;;;26.98;;
7737;SDS011;29398;45.328;5.558;2024-01-15T03:37:43;37.03;;;26.33;;
7737;SDS011;29398;45.328;5.558;2024-01-15T03:38:44;39.42;;;26.70;;
7737;SDS011;29398;45.328;5.558;2024-01-15T03:39:45;41.05;;;27.15;;
7737;SDS011;29398;45.328;5.558;2024-01-15T03:40:49;36.55;;;26.33;;
7737;SDS011;29398;45.328;5.558;2024-01-15T03:41:50;38.30;;;27.08;;
7737;SDS011;29398;45.328;5.558;2024-01-15T03:42:53;39.30;;;26.67;;
7737;SDS011;29398;45.328;5.558;2024-01-15T03:43:54;40.55;;;28.00;;
7737;SDS011;29398;45.328;5.558;2024-01-15T03:44:56;38.03;;;26.92;;
7737;SDS011;29398;45.328;5.558;2024-01-15T03:45:57;38.63;;;27.83;;
7737;SDS011;29398;45.328;5.558;2024-01-15T03:46:59;36.97;;;25.50;;
7737;SDS011;29398;45.328;5.558;2024-01-15T03:48:01;37.95;;;26.70;;
7737;SDS011;29398;45.328;5.558;2024-01-15T03:49:03;37.40;;;27.27;;
7737;SDS011;29398;45.328;5.558;2024-01-15T03:50:04;36.45;;;25.90;;
7737;SDS011;29398;45.328;5.558;2024-01-15T03:51:07;40.25;;;26.20;;
7737;SDS011;29398;45.328;5.558;2024-01-15T03:52:08;38.40;;;27.15;;
7737;SDS011;29398;45.328;5.558;2024-01-15T03:53:09;38.83;;;27.48;;
7737;SDS011;29398;45.328;5.558;2024-01-15T03:54:11;39.25;;;29.10;;
7737;SDS011;29398;45.328;5.558;2024-01-15T03:55:12;38.78;;;28.15;;
7737;SDS011;29398;45.328;5.558;2024-01-15T03:56:15;38.75;;;27.20;;
7737;SDS011;29398;45.328;5.558;2024-01-15T03:57:17;42.53;;;28.45;;
7737;SDS011;29398;45.328;5.558;2024-01-15T03:58:19;42.13;;;28.15;;
7737;SDS011;29398;45.328;5.558;2024-01-15T03:59:20;41.75;;;28.83;;
7737;SDS011;29398;45.328;5.558;2024-01-15T04:00:22;40.63;;;28.08;;
7737;SDS011;29398;45.328;5.558;2024-01-15T04:01:23;38.63;;;26.80;;
7737;SDS011;29398;45.328;5.558;2024-01-15T04:02:25;40.90;;;28.38;;
7737;SDS011;29398;45.328;5.558;2024-01-15T04:03:26;43.95;;;29.20;;
7737;SDS011;29398;45.328;5.558;2024-01-15T04:04:28;39.67;;;27.17;;
7737;SDS011;29398;45.328;5.558;2024-01-15T04:05:29;38.30;;;26.55;;
7737;SDS011;29398;45.328;5.558;2024-01-15T04:06:31;44.15;;;28.70;;
7737;SDS011;29398;45.328;5.558;2024-01-15T04:07:32;36.92;;;26.75;;
7737;SDS011;29398;45.328;5.558;2024-01-15T04:08:35;40.05;;;26.77;;
7737;SDS011;29398;45.328;5.558;2024-01-15T04:09:36;42.78;;;29.40;;
7737;SDS011;29398;45.328;5.558;2024-01-15T04:10:38;40.53;;;28.10;;
7737;SDS011;29398;45.328;5.558;2024-01-15T04:11:40;39.55;;;27.42;;
7737;SDS011;29398;45.328;5.558;2024-01-15T04:12:42;43.55;;;28.52;;
7737;SDS011;29398;45.328;5.558;2024-01-15T04:13:43;40.67;;;27.27;;
7737;SDS011;29398;45.328;5.558;2024-01-15T04:14:45;44.33;;;28.92;;
7737;SDS011;29398;45.328;5.558;2024-01-15T04:15:46;39.05;;;26.40;;
7737;SDS011;29398;45.328;5.558;2024-01-15T04:16:49;36.58;;;26.17;;
7737;SDS011;29398;45.328;5.558;2024-01-15T04:17:50;36.22;;;26.52;;
7737;SDS011;29398;45.328;5.558;2024-01-15T04:18:52;39.28;;;27.02;;
7737;SDS011;29398;45.328;5.558;2024-01-15T04:19:53;42.53;;;29.00;;
7737;SDS011;29398;45.328;5.558;2024-01-15T04:20:55;42.50;;;28.60;;
7737;SDS011;29398;45.328;5.558;2024-01-15T04:21:56;38.22;;;26.67;;
7737;SDS011;29398;45.328;5.558;2024-01-15T04:22:58;38.83;;;26.55;;
7737;SDS011;29398;45.328;5.558;2024-01-15T04:23:59;38.10;;;25.65;;
7737;SDS011;29398;45.328;5.558;2024-01-15T04:25:01;34.65;;;24.65;;
7737;SDS011;29398;45.328;5.558;2024-01-15T04:26:03;40.45;;;26.98;;
7737;SDS011;29398;45.328;5.558;2024-01-15T04:27:07;38.75;;;26.70;;
7737;SDS011;29398;45.328;5.558;2024-01-15T04:28:08;36.33;;;26.30;;
7737;SDS011;29398;45.328;5.558;2024-01-15T04:29:10;39.65;;;26.73;;
7737;SDS011;29398;45.328;5.558;2024-01-15T04:30:11;39.22;;;25.75;;
7737;SDS011;29398;45.328;5.558;2024-01-15T04:31:20;40.05;;;27.15;;
7737;SDS011;29398;45.328;5.558;2024-01-15T04:32:22;35.95;;;25.58;;
7737;SDS011;29398;45.328;5.558;2024-01-15T04:33:24;36.78;;;25.38;;
7737;SDS011;29398;45.328;5.558;2024-01-15T04:34:25;34.15;;;24.58;;
7737;SDS011;29398;45.328;5.558;2024-01-15T04:35:27;34.13;;;23.85;;
7737;SDS011;29398;45.328;5.558;2024-01-15T04:36:28;33.80;;;23.85;;
7737;SDS011;29398;45.328;5.558;2024-01-15T04:37:30;37.42;;;24.40;;
7737;SDS011;29398;45.328;5.558;2024-01-15T04:38:31;31.10;;;23.27;;
7737;SDS011;29398;45.328;5.558;2024-01-15T04:39:33;31.40;;;21.85;;
7737;SDS011;29398;45.328;5.558;2024-01-15T04:40:34;35.78;;;23.65;;
7737;SDS011;29398;45.328;5.558;2024-01-15T04:41:37;32.13;;;23.50;;
7737;SDS011;29398;45.328;5.558;2024-01-15T04:42:39;30.38;;;21.00;;
7737;SDS011;29398;45.328;5.558;2024-01-15T04:43:40;29.85;;;20.58;;
7737;SDS011;29398;45.328;5.558;2024-01-15T04:44:42;31.92;;;22.45;;
7737;SDS011;29398;45.328;5.558;2024-01-15T04:45:44;32.88;;;23.48;;
7737;SDS011;29398;45.328;5.558;2024-01-15T04:46:46;33.58;;;21.95;;
7737;SDS011;29398;45.328;5.558;2024-01-15T04:47:47;33.97;;;22.95;;
7737;SDS011;29398;45.328;5.558;2024-01-15T04:48:49;31.73;;;22.67;;
7737;SDS011;29398;45.328;5.558;2024-01-15T04:49:50;32.30;;;23.42;;
7737;SDS011;29398;45.328;5.558;2024-01-15T04:50:52;30.77;;;21.60;;
7737;SDS011;29398;45.328;5.558;2024-01-15T04:51:53;30.88;;;22.48;;
7737;SDS011;29398;45.328;5.558;2024-01-15T04:52:54;34.00;;;22.55;;
7737;SDS011;29398;45.328;5.558;2024-01-15T04:53:56;32.53;;;22.63;;
7737;SDS011;29398;45.328;5.558;2024-01-15T04:54:57;31.35;;;21.65;;
7737;SDS011;29398;45.328;5.558;2024-01-15T04:55:59;29.75;;;21.85;;
7737;SDS011;29398;45.328;5.558;2024-01-15T04:57:01;28.88;;;21.38;;
7737;SDS011;29398;45.328;5.558;2024-01-15T04:58:04;32.97;;;22.92;;
7737;SDS011;29398;45.328;5.558;2024-01-15T04:59:06;29.52;;;21.23;;
7737;SDS011;29398;45.328;5.558;2024-01-15T05:00:07;30.27;;;22.65;;
7737;SDS011;29398;45.328;5.558;2024-01-15T05:01:10;30.45;;;23.30;;
7737;SDS011;29398;45.328;5.558;2024-01-15T05:02:11;31.13;;;22.00;;
7737;SDS011;29398;45.328;5.558;2024-01-15T05:03:13;33.70;;;23.13;;
7737;SDS011;29398;45.328;5.558;2024-01-15T05:04:14;32.75;;;22.45;;
7737;SDS011;29398;45.328;5.558;2024-01-15T05:05:15;36.13;;;22.25;;
7737;SDS011;29398;45.328;5.558;2024-01-15T05:06:18;31.33;;;22.30;;
7737;SDS011;29398;45.328;5.558;2024-01-15T05:07:19;35.63;;;24.75;;
7737;SDS011;29398;45.328;5.558;2024-01-15T05:08:20;31.65;;;23.35;;
7737;SDS011;29398;45.328;5.558;2024-01-15T05:09:22;33.55;;;23.88;;
7737;SDS011;29398;45.328;5.558;2024-01-15T05:10:23;31.27;;;22.77;;
7737;SDS011;29398;45.328;5.558;2024-01-15T05:11:25;35.25;;;24.23;;
7737;SDS011;29398;45.328;5.558;2024-01-15T05:12:27;30.42;;;23.15;;
7737;SDS011;29398;45.328;5.558;2024-01-15T05:13:30;33.40;;;22.92;;
7737;SDS011;29398;45.328;5.558;2024-01-15T05:14:31;33.22;;;23.50;;
7737;SDS011;29398;45.328;5.558;2024-01-15T05:15:33;34.28;;;24.83;;
7737;SDS011;29398;45.328;5.558;2024-01-15T05:16:34;33.42;;;24.15;;
7737;SDS011;29398;45.328;5.558;2024-01-15T05:17:39;34.15;;;24.10;;
7737;SDS011;29398;45.328;5.558;2024-01-15T05:18:40;32.58;;;23.92;;
7737;SDS011;29398;45.328;5.558;2024-01-15T05:19:43;37.35;;;25.08;;
7737;SDS011;29398;45.328;5.558;2024-01-15T05:20:44;36.25;;;25.35;;
7737;SDS011;29398;45.328;5.558;2024-01-15T05:21:47;35.55;;;25.08;;
7737;SDS011;29398;45.328;5.558;2024-01-15T05:22:48;36.80;;;25.38;;
7737;SDS011;29398;45.328;5.558;2024-01-15T05:23:50;35.40;;;26.83;;
7737;SDS011;29398;45.328;5.558;2024-01-15T05:24:51;35.33;;;25.45;;
7737;SDS011;29398;45.328;5.558;2024-01-15T05:25:52;36.60;;;25.55;;
7737;SDS011;29398;45.328;5.558;2024-01-15T05:26:54;34.55;;;25.23;;
7737;SDS011;29398;45.328;5.558;2024-01-15T05:27:55;36.35;;;26.30;;
7737;SDS011;29398;45.328;5.558;2024-01-15T05:28:59;36.33;;;24.02;;
7737;SDS011;29398;45.328;5.558;2024-01-15T05:30:00;38.53;;;24.98;;
7737;SDS011;29398;45.328;5.558;2024-01-15T05:31:01;34.00;;;24.05;;
7737;SDS011;29398;45.328;5.558;2024-01-15T05:32:04;32.88;;;23.77;;
7737;SDS011;29398;45.328;5.558;2024-01-15T05:33:05;32.05;;;23.60;;
7737;SDS011;29398;45.328;5.558;2024-01-15T05:34:08;33.03;;;23.33;;
7737;SDS011;29398;45.328;5.558;2024-01-15T05:35:09;34.05;;;23.98;;
7737;SDS011;29398;45.328;5.558;2024-01-15T05:36:11;33.00;;;22.25;;
7737;SDS011;29398;45.328;5.558;2024-01-15T05:37:12;33.78;;;24.17;;
7737;SDS011;29398;45.328;5.558;2024-01-15T05:38:14;34.30;;;24.10;;
7737;SDS011;29398;45.328;5.558;2024-01-15T05:39:16;33.60;;;23.60;;
7737;SDS011;29398;45.328;5.558;2024-01-15T05:40:18;30.38;;;22.30;;
7737;SDS011;29398;45.328;5.558;2024-01-15T05:41:19;31.25;;;23.27;;
7737;SDS011;29398;45.328;5.558;2024-01-15T05:42:21;34.97;;;24.30;;
7737;SDS011;29398;45.328;5.558;2024-01-15T05:43:22;33.35;;;22.70;;
7737;SDS011;29398;45.328;5.558;2024-01-15T05:44:26;33.10;;;24.25;;
7737;SDS011;29398;45.328;5.558;2024-01-15T05:45:27;31.63;;;22.92;;
7737;SDS011;29398;45.328;5.558;2024-01-15T05:46:31;34.90;;;23.75;;
7737;SDS011;29398;45.328;5.558;2024-01-15T05:47:32;31.90;;;22.95;;
7737;SDS011;29398;45.328;5.558;2024-01-15T05:48:34;33.78;;;23.23;;
7737;SDS011;29398;45.328;5.558;2024-01-15T05:49:35;32.80;;;23.15;;
7737;SDS011;29398;45.328;5.558;2024-01-15T05:50:37;34.97;;;25.00;;
7737;SDS011;29398;45.328;5.558;2024-01-15T05:51:39;31.50;;;23.70;;
7737;SDS011;29398;45.328;5.558;2024-01-15T05:52:41;30.52;;;22.25;;
7737;SDS011;29398;45.328;5.558;2024-01-15T05:53:42;33.35;;;23.10;;
7737;SDS011;29398;45.328;5.558;2024-01-15T05:54:44;33.05;;;23.08;;
7737;SDS011;29398;45.328;5.558;2024-01-15T05:55:45;35.75;;;24.67;;
7737;SDS011;29398;45.328;5.558;2024-01-15T05:56:48;34.90;;;23.42;;
7737;SDS011;29398;45.328;5.558;2024-01-15T05:57:49;31.40;;;22.42;;
7737;SDS011;29398;45.328;5.558;2024-01-15T05:58:50;34.72;;;25.08;;
7737;SDS011;29398;45.328;5.558;2024-01-15T05:59:53;31.95;;;23.02;;
7737;SDS011;29398;45.328;5.558;2024-01-15T06:00:54;35.15;;;24.70;;
7737;SDS011;29398;45.328;5.558;2024-01-15T06:01:56;33.20;;;24.10;;
7737;SDS011;29398;45.328;5.558;2024-01-15T06:02:58;37.58;;;25.80;;
7737;SDS011;29398;45.328;5.558;2024-01-15T06:04:00;33.88;;;25.02;;
7737;SDS011;29398;45.328;5.558;2024-01-15T06:05:01;36.63;;;25.50;;
7737;SDS011;29398;45.328;5.558;2024-01-15T06:06:03;38.15;;;24.85;;